Time;durP1;ratioP1;P1;durP2;ratioP2;P2;SDS_P1;SDS_P2;PMS_P1;PMS_P2;Temp;Humidity;BMP_temperature;BMP_pressure;BME280_temperature;BME280_humidity;BME280_pressure;Samples;Min_cycle;Max_cycle;Signal;HPM_P1;HPM_P2
2022/11/09 00:00:41;;;;;;;20.52;15.35;;;;;;;;;;4994533;28;20467;-77
2022/11/09 00:03:14;;;;;;;25.17;17.15;;;;;;;;;;5010787;28;20029;-77
2022/11/09 00:05:40;;;;;;;26.40;16.52;;;;;;;;;;4994710;28;20018;-78
2022/11/09 00:08:07;;;;;;;25.63;17.23;;;;;;;;;;5002889;28;20448;-77
2022/11/09 00:10:33;;;;;;;24.10;17.48;;;;;;;;;;5019004;28;20026;-78
2022/11/09 00:13:00;;;;;;;22.83;16.88;;;;;;;;;;5010496;28;20498;-78
2022/11/09 00:15:26;;;;;;;24.25;16.83;;;;;;;;;;5012272;28;20037;-77
2022/11/09 00:17:52;;;;;;;26.63;18.25;;;;;;;;;;5018522;28;20018;-76
2022/11/09 00:20:18;;;;;;;23.00;17.02;;;;;;;;;;5003070;28;20021;-79
2022/11/09 00:22:47;;;;;;;25.15;17.88;;;;;;;;;;5010702;28;20087;-79
2022/11/09 00:25:13;;;;;;;25.63;17.77;;;;;;;;;;5028139;28;20021;-75
2022/11/09 00:27:39;;;;;;;24.95;17.55;;;;;;;;;;5015584;28;20121;-76
2022/11/09 00:30:14;;;;;;;29.48;18.38;;;;;;;;;;5022408;28;20611;-77
2022/11/09 00:32:40;;;;;;;26.42;17.80;;;;;;;;;;5025388;28;20025;-76
2022/11/09 00:35:06;;;;;;;27.67;18.20;;;;;;;;;;5013802;28;20037;-77
2022/11/09 00:37:32;;;;;;;25.85;17.70;;;;;;;;;;5014446;28;20104;-77
2022/11/09 00:39:58;;;;;;;26.48;17.13;;;;;;;;;;5023212;28;20516;-77
2022/11/09 00:42:24;;;;;;;25.95;19.10;;;;;;;;;;5022393;28;20021;-78
2022/11/09 00:44:51;;;;;;;26.70;19.10;;;;;;;;;;5019359;28;20022;-80
2022/11/09 00:47:17;;;;;;;26.70;18.60;;;;;;;;;;5013183;28;20042;-77
2022/11/09 00:49:43;;;;;;;26.95;19.33;;;;;;;;;;4997198;28;20045;-77
2022/11/09 00:52:09;;;;;;;30.23;18.73;;;;;;;;;;5023849;28;20044;-77
2022/11/09 00:54:35;;;;;;;28.15;18.33;;;;;;;;;;5021658;28;20116;-77
2022/11/09 00:57:01;;;;;;;32.08;19.73;;;;;;;;;;5030752;28;20032;-77
2022/11/09 00:59:27;;;;;;;26.98;18.83;;;;;;;;;;5018000;28;20031;-77
2022/11/09 01:01:56;;;;;;;29.13;19.35;;;;;;;;;;5030378;28;20325;-77
2022/11/09 01:04:22;;;;;;;32.67;21.30;;;;;;;;;;5015056;28;20092;-77
2022/11/09 01:06:48;;;;;;;28.75;19.70;;;;;;;;;;4997282;28;20621;-77
2022/11/09 01:09:16;;;;;;;31.20;20.98;;;;;;;;;;5032471;28;20036;-77
2022/11/09 01:11:45;;;;;;;27.77;18.98;;;;;;;;;;5016648;28;20044;-76
2022/11/09 01:14:11;;;;;;;32.38;21.63;;;;;;;;;;5025254;28;20057;-76
2022/11/09 01:16:37;;;;;;;29.13;19.92;;;;;;;;;;5009523;28;20037;-80
2022/11/09 01:19:03;;;;;;;30.10;19.35;;;;;;;;;;4983048;28;20022;-77
2022/11/09 01:21:29;;;;;;;33.20;20.38;;;;;;;;;;5012402;28;20038;-78
2022/11/09 01:23:57;;;;;;;28.90;19.92;;;;;;;;;;5020809;28;20018;-80
2022/11/09 01:26:23;;;;;;;28.85;20.45;;;;;;;;;;5005346;28;20157;-78
2022/11/09 01:28:49;;;;;;;30.88;20.77;;;;;;;;;;5013811;28;20507;-76
2022/11/09 01:31:16;;;;;;;33.20;21.30;;;;;;;;;;4996910;28;20687;-77
2022/11/09 01:33:42;;;;;;;32.03;20.27;;;;;;;;;;5002334;28;20053;-76
2022/11/09 01:36:10;;;;;;;34.40;19.55;;;;;;;;;;5033837;28;20037;-77
2022/11/09 01:38:37;;;;;;;30.15;20.02;;;;;;;;;;5033398;28;20391;-76
2022/11/09 01:41:04;;;;;;;29.10;19.48;;;;;;;;;;5033919;28;20430;-76
2022/11/09 01:43:30;;;;;;;30.05;20.48;;;;;;;;;;4995960;28;20021;-78
2022/11/09 01:46:02;;;;;;;30.55;20.33;;;;;;;;;;5021174;28;20032;-77
2022/11/09 01:48:37;;;;;;;29.83;20.40;;;;;;;;;;5020917;28;20026;-77
2022/11/09 01:51:06;;;;;;;30.15;20.58;;;;;;;;;;5030187;28;20071;-77
2022/11/09 01:53:34;;;;;;;30.83;20.48;;;;;;;;;;5029089;28;20432;-77
2022/11/09 01:56:02;;;;;;;31.75;20.63;;;;;;;;;;5021320;28;20025;-76
2022/11/09 01:58:30;;;;;;;30.70;19.52;;;;;;;;;;5021288;28;20051;-76
2022/11/09 02:00:56;;;;;;;30.15;21.45;;;;;;;;;;5014204;28;20033;-76
2022/11/09 02:03:25;;;;;;;31.42;20.00;;;;;;;;;;5029706;28;20476;-77
2022/11/09 02:05:52;;;;;;;31.05;21.08;;;;;;;;;;5020303;28;20476;-76
2022/11/09 02:08:22;;;;;;;33.47;21.50;;;;;;;;;;5033405;28;20033;-77
2022/11/09 02:10:57;;;;;;;34.97;23.10;;;;;;;;;;5015744;28;20097;-78
2022/11/09 02:13:26;;;;;;;34.83;22.40;;;;;;;;;;5009550;28;20057;-79
2022/11/09 02:15:52;;;;;;;30.42;21.48;;;;;;;;;;5006204;28;20030;-79
2022/11/09 02:18:21;;;;;;;30.38;20.83;;;;;;;;;;5005819;28;20456;-78
2022/11/09 02:20:49;;;;;;;29.60;20.08;;;;;;;;;;5001375;28;20029;-78
2022/11/09 02:23:16;;;;;;;29.63;20.83;;;;;;;;;;5013129;28;20017;-79
2022/11/09 02:26:06;;;;;;;30.20;19.42;;;;;;;;;;5015071;28;20071;-78
2022/11/09 02:31:18;;;;;;;29.92;19.20;;;;;;;;;;1290536;26;21122;-78
2022/11/09 02:33:55;;;;;;;28.92;19.58;;;;;;;;;;5046787;28;20037;-78
2022/11/09 02:36:26;;;;;;;25.75;19.40;;;;;;;;;;5043789;28;20057;-78
2022/11/09 02:38:52;;;;;;;;;;;;;;;;;;5035756;28;20116;-78
2022/11/09 02:41:19;;;;;;;29.63;19.30;;;;;;;;;;5047452;28;19996;-78
2022/11/09 02:43:51;;;;;;;29.65;19.38;;;;;;;;;;5020866;28;20041;-78
2022/11/09 02:46:17;;;;;;;;;;;;;;;;;;5042393;28;20087;-78
2022/11/09 02:48:50;;;;;;;28.25;18.23;;;;;;;;;;5047059;28;19909;-77
2022/11/09 02:51:16;;;;;;;27.05;18.50;;;;;;;;;;5022342;28;20121;-76
2022/11/09 02:53:47;;;;;;;26.63;18.50;;;;;;;;;;5042926;28;20029;-76
2022/11/09 02:56:16;;;;;;;27.15;18.50;;;;;;;;;;5040573;28;20033;-76
2022/11/09 02:58:42;;;;;;;31.83;19.83;;;;;;;;;;5058662;28;20135;-78
2022/11/09 03:01:11;;;;;;;27.95;19.92;;;;;;;;;;5035208;28;20017;-77
2022/11/09 03:03:39;;;;;;;29.75;19.48;;;;;;;;;;5014765;28;20021;-76
2022/11/09 03:06:06;;;;;;;26.52;18.58;;;;;;;;;;5022893;28;20029;-76
2022/11/09 03:08:32;;;;;;;24.45;18.08;;;;;;;;;;5039448;28;20104;-77
2022/11/09 03:11:01;;;;;;;29.60;20.20;;;;;;;;;;5014855;28;20068;-77
2022/11/09 03:13:27;;;;;;;28.02;18.75;;;;;;;;;;5012521;28;20105;-78
2022/11/09 03:15:59;;;;;;;28.52;19.83;;;;;;;;;;5026392;28;20091;-78
2022/11/09 03:18:28;;;;;;;29.58;19.25;;;;;;;;;;5040877;28;20068;-79
2022/11/09 03:21:00;;;;;;;26.77;18.98;;;;;;;;;;5034504;28;20382;-77
2022/11/09 03:23:26;;;;;;;30.30;20.25;;;;;;;;;;5021539;28;20029;-80
2022/11/09 03:25:58;;;;;;;30.60;19.52;;;;;;;;;;5057232;28;20025;-81
2022/11/09 03:28:29;;;;;;;31.73;20.75;;;;;;;;;;5056820;28;20025;-79
2022/11/09 03:31:01;;;;;;;35.70;20.83;;;;;;;;;;5041747;28;20028;-84
2022/11/09 03:33:30;;;;;;;29.52;20.17;;;;;;;;;;5044828;28;20086;-79
2022/11/09 03:35:56;;;;;;;28.00;19.13;;;;;;;;;;5044244;28;20022;-76
2022/11/09 03:38:24;;;;;;;26.35;19.02;;;;;;;;;;5031151;28;20029;-78
2022/11/09 03:40:50;;;;;;;26.45;18.67;;;;;;;;;;5031880;28;20018;-77
2022/11/09 03:43:16;;;;;;;27.17;17.85;;;;;;;;;;5034192;28;20029;-76
2022/11/09 03:45:42;;;;;;;26.08;17.63;;;;;;;;;;5034384;28;20021;-76
2022/11/09 03:48:08;;;;;;;26.98;19.08;;;;;;;;;;5024466;28;20116;-77
2022/11/09 03:50:39;;;;;;;26.45;18.92;;;;;;;;;;5044640;28;20487;-77
2022/11/09 03:53:05;;;;;;;27.93;17.70;;;;;;;;;;5035878;28;20501;-76
2022/11/09 03:55:31;;;;;;;29.25;18.75;;;;;;;;;;5030393;28;20629;-75
2022/11/09 03:58:00;;;;;;;28.48;18.90;;;;;;;;;;5038904;28;20036;-77
2022/11/09 04:00:27;;;;;;;28.85;18.88;;;;;;;;;;5022421;28;20018;-77
2022/11/09 04:02:53;;;;;;;26.23;18.95;;;;;;;;;;5030313;28;20063;-77
2022/11/09 04:05:20;;;;;;;28.42;19.02;;;;;;;;;;5017273;28;20025;-78
2022/11/09 04:07:50;;;;;;;26.42;19.00;;;;;;;;;;5039302;28;20025;-77
2022/11/09 04:10:16;;;;;;;26.58;18.42;;;;;;;;;;5041381;28;20396;-77
2022/11/09 04:12:47;;;;;;;27.38;18.58;;;;;;;;;;5045259;28;20021;-77
2022/11/09 04:15:13;;;;;;;29.17;19.15;;;;;;;;;;5031632;28;20067;-77
2022/11/09 04:17:39;;;;;;;29.60;18.77;;;;;;;;;;5018611;28;20499;-77
2022/11/09 04:20:06;;;;;;;28.63;18.70;;;;;;;;;;5037600;28;20036;-77
2022/11/09 04:22:35;;;;;;;26.73;19.30;;;;;;;;;;5023476;28;20057;-77
2022/11/09 04:25:03;;;;;;;28.15;18.70;;;;;;;;;;5016922;28;20030;-79
2022/11/09 04:27:30;;;;;;;26.08;17.70;;;;;;;;;;5038225;23;20045;-77
2022/11/09 04:29:56;;;;;;;28.42;18.52;;;;;;;;;;5055193;28;20044;-77
2022/11/09 04:32:24;;;;;;;23.63;16.95;;;;;;;;;;5055464;28;20017;-77
2022/11/09 04:34:50;;;;;;;25.98;18.00;;;;;;;;;;5070636;28;20089;-77
2022/11/09 04:37:16;;;;;;;26.35;17.85;;;;;;;;;;5053376;28;20032;-77
2022/11/09 04:39:44;;;;;;;27.23;17.38;;;;;;;;;;5056406;28;20035;-78
2022/11/09 04:42:11;;;;;;;25.42;16.75;;;;;;;;;;5076102;28;20031;-77
2022/11/09 04:44:37;;;;;;;24.52;17.17;;;;;;;;;;5062160;28;20045;-77
2022/11/09 04:47:03;;;;;;;27.05;18.55;;;;;;;;;;5071351;28;20127;-75
2022/11/09 04:49:29;;;;;;;25.02;16.92;;;;;;;;;;5058335;28;20059;-76
2022/11/09 04:51:55;;;;;;;25.60;16.77;;;;;;;;;;5067317;28;20033;-76
2022/11/09 04:54:21;;;;;;;22.98;16.08;;;;;;;;;;5065688;28;20063;-76
2022/11/09 04:56:47;;;;;;;24.33;17.45;;;;;;;;;;5056603;28;20031;-76
2022/11/09 04:59:13;;;;;;;26.60;17.80;;;;;;;;;;5057361;28;20020;-76
2022/11/09 05:01:41;;;;;;;23.48;16.58;;;;;;;;;;5069501;28;20479;-77
2022/11/09 05:04:07;;;;;;;24.20;15.57;;;;;;;;;;5054892;28;20483;-77
2022/11/09 05:06:33;;;;;;;24.67;16.63;;;;;;;;;;5067163;28;20039;-77
2022/11/09 05:09:05;;;;;;;22.60;16.55;;;;;;;;;;5074039;28;20028;-77
2022/11/09 05:11:34;;;;;;;25.58;16.85;;;;;;;;;;5016623;28;20124;-78
2022/11/09 05:14:00;;;;;;;27.80;17.75;;;;;;;;;;5032955;28;20398;-77
2022/11/09 05:16:34;;;;;;;25.02;16.65;;;;;;;;;;5052923;28;20028;-77
2022/11/09 05:22:05;;;;;;;;;;;;;;;;;;;;;
2022/11/09 05:25:08;;;;;;;24.35;16.70;;;;;;;;;;5066658;28;20029;-77
2022/11/09 05:27:53;;;;;;;22.38;15.93;;;;;;;;;;5054685;28;20409;-78
2022/11/09 05:33:07;;;;;;;25.35;16.15;;;;;;;;;;5049096;28;20044;-76
2022/11/09 05:35:33;;;;;;;18.92;15.07;;;;;;;;;;5034949;28;20021;-76
2022/11/09 05:37:59;;;;;;;24.65;15.88;;;;;;;;;;5052223;28;20103;-76
2022/11/09 05:40:27;;;;;;;24.02;16.55;;;;;;;;;;5053181;28;20031;-77
2022/11/09 05:42:54;;;;;;;21.13;15.30;;;;;;;;;;5053172;28;20014;-78
2022/11/09 05:45:20;;;;;;;23.20;16.23;;;;;;;;;;5052857;28;20471;-77
2022/11/09 05:47:49;;;;;;;26.60;15.90;;;;;;;;;;5051992;28;20548;-76
2022/11/09 05:50:16;;;;;;;23.17;16.30;;;;;;;;;;5035317;28;20036;-76
2022/11/09 05:52:42;;;;;;;21.30;14.88;;;;;;;;;;5035022;28;20436;-77
2022/11/09 05:55:08;;;;;;;21.90;15.23;;;;;;;;;;5035162;28;20036;-77
2022/11/09 05:57:34;;;;;;;24.52;16.83;;;;;;;;;;5034031;28;20017;-77
2022/11/09 06:00:04;;;;;;;24.20;16.20;;;;;;;;;;5053080;28;20032;-77
2022/11/09 06:02:31;;;;;;;24.77;16.83;;;;;;;;;;5035041;28;20032;-77
2022/11/09 06:04:58;;;;;;;22.23;15.68;;;;;;;;;;5052643;28;20021;-77
2022/11/09 06:07:24;;;;;;;25.20;16.85;;;;;;;;;;5051970;28;20021;-77
2022/11/09 06:09:50;;;;;;;25.77;16.17;;;;;;;;;;5052776;28;20154;-76
2022/11/09 06:12:16;;;;;;;22.65;16.58;;;;;;;;;;5034884;28;20474;-75
2022/11/09 06:14:42;;;;;;;23.60;15.77;;;;;;;;;;5053110;28;20052;-75
2022/11/09 06:17:08;;;;;;;24.48;16.88;;;;;;;;;;5051300;28;20266;-76
2022/11/09 06:19:34;;;;;;;28.35;16.73;;;;;;;;;;5052035;28;20066;-76
2022/11/09 06:22:00;;;;;;;23.58;16.13;;;;;;;;;;5050221;28;20028;-76
2022/11/09 06:24:31;;;;;;;22.30;15.40;;;;;;;;;;5034704;28;20017;-76
2022/11/09 06:26:57;;;;;;;24.23;16.83;;;;;;;;;;5038829;28;20024;-76
2022/11/09 06:29:26;;;;;;;21.85;16.30;;;;;;;;;;5054037;28;20394;-76
2022/11/09 06:31:52;;;;;;;24.55;16.83;;;;;;;;;;5037079;28;20120;-77
2022/11/09 06:34:18;;;;;;;22.70;16.70;;;;;;;;;;5052944;28;20029;-76
2022/11/09 06:36:44;;;;;;;25.15;16.75;;;;;;;;;;5052792;28;20021;-78
2022/11/09 06:39:18;;;;;;;25.73;17.27;;;;;;;;;;5034510;28;20027;-77
2022/11/09 06:41:44;;;;;;;24.10;16.40;;;;;;;;;;5052059;28;20028;-76
2022/11/09 06:44:10;;;;;;;24.52;16.90;;;;;;;;;;5053721;28;20080;-76
2022/11/09 06:46:39;;;;;;;25.95;18.02;;;;;;;;;;5037368;28;20048;-76
2022/11/09 06:49:08;;;;;;;22.80;16.20;;;;;;;;;;5052910;28;20025;-77
2022/11/09 06:51:34;;;;;;;25.50;16.25;;;;;;;;;;5052358;28;20128;-76
2022/11/09 06:54:00;;;;;;;26.35;16.25;;;;;;;;;;5043724;28;20036;-77
2022/11/09 06:56:26;;;;;;;22.90;15.88;;;;;;;;;;5056365;28;20037;-77
2022/11/09 06:58:52;;;;;;;35.33;16.30;;;;;;;;;;5054270;28;20029;-77
2022/11/09 07:01:22;;;;;;;21.75;15.93;;;;;;;;;;5059605;28;20032;-78
2022/11/09 07:03:48;;;;;;;23.05;16.60;;;;;;;;;;5039896;28;20221;-77
2022/11/09 07:06:14;;;;;;;22.67;16.00;;;;;;;;;;5056608;28;20439;-76
2022/11/09 07:08:40;;;;;;;24.30;15.82;;;;;;;;;;5042165;28;20525;-73
2022/11/09 07:11:07;;;;;;;25.55;17.88;;;;;;;;;;5037881;28;20056;-74
2022/11/09 07:13:33;;;;;;;22.75;15.35;;;;;;;;;;5051929;28;20016;-75
2022/11/09 07:15:59;;;;;;;21.23;15.88;;;;;;;;;;5051736;28;20033;-75
2022/11/09 07:18:25;;;;;;;24.75;14.95;;;;;;;;;;5051325;28;20119;-74
2022/11/09 07:20:51;;;;;;;22.02;13.95;;;;;;;;;;5052663;28;20029;-74
2022/11/09 07:23:18;;;;;;;22.13;14.57;;;;;;;;;;5034064;28;20094;-76
2022/11/09 07:25:44;;;;;;;20.25;14.02;;;;;;;;;;5051411;28;20041;-75
2022/11/09 07:28:11;;;;;;;20.60;14.20;;;;;;;;;;5050974;28;20033;-75
2022/11/09 07:30:37;;;;;;;21.05;14.07;;;;;;;;;;5045160;28;20032;-74
2022/11/09 07:33:04;;;;;;;19.35;13.68;;;;;;;;;;5047107;28;20033;-74
2022/11/09 07:35:30;;;;;;;17.50;12.55;;;;;;;;;;5033350;28;20029;-74
2022/11/09 07:38:00;;;;;;;21.83;11.57;;;;;;;;;;5029548;28;20023;-75
2022/11/09 07:40:26;;;;;;;16.55;11.70;;;;;;;;;;5043085;28;20414;-75
2022/11/09 07:43:02;;;;;;;15.63;11.23;;;;;;;;;;5036456;28;20067;-80
2022/11/09 07:45:40;;;;;;;16.70;10.70;;;;;;;;;;5031256;28;20021;-79
2022/11/09 07:48:12;;;;;;;27.20;11.73;;;;;;;;;;5020153;28;20216;-79
2022/11/09 07:50:59;;;;;;;13.82;10.50;;;;;;;;;;5025152;28;20033;-80
2022/11/09 07:54:03;;;;;;;13.57;10.45;;;;;;;;;;5020223;28;20036;-81
2022/11/09 07:56:41;;;;;;;15.98;10.55;;;;;;;;;;5027071;28;20037;-81
2022/11/09 08:28:21;;;;;;;24.20;15.10;;;;;;;;;;4793823;23;20450;-77
2022/11/09 08:30:57;;;;;;;20.65;14.98;;;;;;;;;;5019835;28;20065;-77
2022/11/09 08:33:32;;;;;;;21.25;13.95;;;;;;;;;;5013709;28;20046;-77
2022/11/09 08:36:24;;;;;;;21.38;14.80;;;;;;;;;;5026844;28;20113;-77
2022/11/09 08:39:01;;;;;;;24.83;15.43;;;;;;;;;;5017559;28;20087;-78
2022/11/09 08:41:33;;;;;;;23.75;15.05;;;;;;;;;;5062700;22;20029;-79
2022/11/09 08:44:55;;;;;;;23.67;14.35;;;;;;;;;;5057916;28;20036;-79
2022/11/09 08:47:52;;;;;;;22.10;15.05;;;;;;;;;;5046661;28;20029;-79
2022/11/09 09:03:06;;;;;;;16.25;12.48;;;;;;;;;;5035723;28;20017;-78
2022/11/09 09:05:47;;;;;;;18.15;12.93;;;;;;;;;;5056086;28;20052;-79
2022/11/09 09:08:14;;;;;;;18.92;12.82;;;;;;;;;;5062965;28;20024;-78
2022/11/09 09:10:42;;;;;;;17.90;12.75;;;;;;;;;;5065954;28;20390;-77
2022/11/09 09:13:11;;;;;;;16.38;12.23;;;;;;;;;;5074139;28;20083;-77
2022/11/09 09:15:37;;;;;;;15.90;11.95;;;;;;;;;;5056580;28;20554;-78
2022/11/09 09:18:05;;;;;;;19.95;12.05;;;;;;;;;;5067314;28;20482;-78
2022/11/09 09:20:45;;;;;;;16.20;12.02;;;;;;;;;;5064243;28;20016;-77
2022/11/09 09:23:15;;;;;;;14.93;11.73;;;;;;;;;;5059410;28;20420;-78
2022/11/09 09:28:37;;;;;;;16.75;11.95;;;;;;;;;;5057959;28;20391;-79
2022/11/09 09:31:06;;;;;;;17.30;12.88;;;;;;;;;;5071744;28;20020;-77
2022/11/09 09:33:39;;;;;;;17.17;13.50;;;;;;;;;;5059633;28;20055;-77
2022/11/09 09:36:19;;;;;;;19.00;13.23;;;;;;;;;;5066833;28;20366;-77
2022/11/09 09:38:54;;;;;;;18.63;14.15;;;;;;;;;;5089570;28;20039;-82
2022/11/09 09:41:23;;;;;;;16.80;12.88;;;;;;;;;;5073851;28;20017;-78
2022/11/09 09:44:00;;;;;;;17.45;13.90;;;;;;;;;;5089593;28;20035;-77
2022/11/09 09:46:41;;;;;;;16.75;12.27;;;;;;;;;;5085701;28;20028;-77
2022/11/09 09:49:07;;;;;;;;;;;;;;;;;;5070807;28;20025;-79
2022/11/09 09:52:00;;;;;;;16.17;12.18;;;;;;;;;;5083386;28;19912;-82
2022/11/09 09:54:35;;;;;;;17.73;11.55;;;;;;;;;;5073859;28;20111;-78
2022/11/09 09:57:06;;;;;;;16.77;12.02;;;;;;;;;;5084682;28;20043;-77
2022/11/09 09:59:47;;;;;;;15.90;11.93;;;;;;;;;;5059438;28;20032;-77
2022/11/09 10:02:24;;;;;;;16.15;12.05;;;;;;;;;;5073404;28;20751;-78
2022/11/09 10:05:12;;;;;;;15.20;11.95;;;;;;;;;;5058669;28;20047;-78
2022/11/09 10:07:51;;;;;;;33.75;11.73;;;;;;;;;;5055837;28;20082;-76
2022/11/09 10:10:29;;;;;;;15.15;11.60;;;;;;;;;;5064310;28;20025;-77
2022/11/09 10:13:14;;;;;;;;;;;;;;;;;;;;;
2022/11/09 10:15:49;;;;;;;13.95;11.18;;;;;;;;;;5040646;28;20020;-80
2022/11/09 10:18:36;;;;;;;16.95;12.05;;;;;;;;;;5062650;28;20048;-77
2022/11/09 10:21:39;;;;;;;20.23;11.90;;;;;;;;;;5067682;28;20032;-77
2022/11/09 10:27:28;;;;;;;14.68;10.43;;;;;;;;;;5072122;28;20111;-76
2022/11/09 10:30:25;;;;;;;16.08;10.77;;;;;;;;;;5060794;28;20036;-78
2022/11/09 10:33:21;;;;;;;;;;;;;;;;;;;;;
2022/11/09 10:39:29;;;;;;;14.32;10.15;;;;;;;;;;5063866;28;20392;-78
2022/11/09 10:42:13;;;;;;;14.63;9.65;;;;;;;;;;5033411;28;20448;-78
2022/11/09 10:44:59;;;;;;;13.20;9.73;;;;;;;;;;5056739;28;20530;-78
2022/11/09 10:47:30;;;;;;;15.20;10.35;;;;;;;;;;5053605;28;20111;-77
2022/11/09 10:50:18;;;;;;;11.98;9.50;;;;;;;;;;5058749;28;20340;-78
2022/11/09 10:52:48;;;;;;;13.02;10.18;;;;;;;;;;5059777;28;20517;-78
2022/11/09 10:55:22;;;;;;;13.90;10.40;;;;;;;;;;5068861;28;20275;-78
2022/11/09 10:57:57;;;;;;;19.10;10.65;;;;;;;;;;5056134;28;20671;-78
2022/11/09 11:00:31;;;;;;;16.17;11.60;;;;;;;;;;5072080;28;20020;-76
2022/11/09 11:03:11;;;;;;;15.90;11.68;;;;;;;;;;5071925;28;20033;-77
2022/11/09 11:05:47;;;;;;;13.52;11.30;;;;;;;;;;5068621;28;20033;-77
2022/11/09 11:08:21;;;;;;;13.65;10.95;;;;;;;;;;5051389;28;20029;-80
2022/11/09 11:11:14;;;;;;;15.65;11.25;;;;;;;;;;5065162;28;20293;-77
2022/11/09 11:13:43;;;;;;;13.45;10.85;;;;;;;;;;5053973;28;20028;-76
2022/11/09 11:16:15;;;;;;;14.43;11.30;;;;;;;;;;5071783;28;20248;-77
2022/11/09 11:18:46;;;;;;;17.85;12.70;;;;;;;;;;5069622;28;20030;-76
2022/11/09 11:21:43;;;;;;;15.40;11.87;;;;;;;;;;5055236;28;20372;-77
2022/11/09 11:24:15;;;;;;;16.65;12.50;;;;;;;;;;5046791;28;20067;-78
2022/11/09 11:27:07;;;;;;;12.85;10.70;;;;;;;;;;5059010;28;20506;-76
2022/11/09 11:29:55;;;;;;;;;;;;;;;;;;;;;
2022/11/09 11:32:23;;;;;;;15.50;12.75;;;;;;;;;;5051357;28;20032;-78
2022/11/09 11:34:51;;;;;;;15.55;11.50;;;;;;;;;;5064855;28;20028;-78
2022/11/09 11:37:36;;;;;;;17.15;11.23;;;;;;;;;;5054483;28;20055;-78
2022/11/09 11:40:05;;;;;;;15.75;11.63;;;;;;;;;;5065264;28;20121;-78
2022/11/09 11:42:34;;;;;;;14.05;11.10;;;;;;;;;;5062582;28;20017;-77
2022/11/09 11:45:57;;;;;;;;;;;;;;;;;;;;;
2022/11/09 11:54:23;;;;;;;12.80;10.10;;;;;;;;;;5044928;28;20032;-76
2022/11/09 11:57:07;;;;;;;15.48;10.38;;;;;;;;;;5054354;28;20110;-78
2022/11/09 12:00:03;;;;;;;14.93;10.65;;;;;;;;;;5063706;28;20060;-80
2022/11/09 12:02:48;;;;;;;13.38;10.30;;;;;;;;;;5050113;28;20036;-78
2022/11/09 12:05:32;;;;;;;12.82;10.25;;;;;;;;;;5069424;28;20025;-83
2022/11/09 12:08:17;;;;;;;11.48;9.32;;;;;;;;;;5072473;28;20029;-76
2022/11/09 12:11:01;;;;;;;15.23;10.48;;;;;;;;;;5069781;28;20119;-75
2022/11/09 12:13:37;;;;;;;12.93;10.00;;;;;;;;;;5070948;28;20033;-75
2022/11/09 12:16:22;;;;;;;14.07;11.10;;;;;;;;;;5069378;28;20045;-78
2022/11/09 12:18:57;;;;;;;12.15;9.63;;;;;;;;;;5070114;28;20035;-76
2022/11/09 12:21:34;;;;;;;14.68;10.52;;;;;;;;;;5069336;28;20024;-77
2022/11/09 12:24:10;;;;;;;16.90;12.18;;;;;;;;;;5071005;28;20024;-76
2022/11/09 12:27:07;;;;;;;13.82;10.27;;;;;;;;;;5071303;28;20028;-75
2022/11/09 12:29:39;;;;;;;14.55;10.65;;;;;;;;;;5070223;28;20110;-76
2022/11/09 12:32:17;;;;;;;11.65;9.77;;;;;;;;;;5070102;28;20392;-76
2022/11/09 12:34:55;;;;;;;15.80;10.43;;;;;;;;;;5071124;28;20533;-76
2022/11/09 12:37:27;;;;;;;14.93;10.75;;;;;;;;;;5049085;28;20025;-77
2022/11/09 12:39:54;;;;;;;17.00;10.75;;;;;;;;;;5053285;28;20025;-76
2022/11/09 12:42:20;;;;;;;14.88;10.85;;;;;;;;;;5053337;28;20024;-76
2022/11/09 12:44:58;;;;;;;14.75;10.38;;;;;;;;;;5048425;28;20063;-77
2022/11/09 12:47:28;;;;;;;15.02;11.63;;;;;;;;;;5048694;28;20114;-77
2022/11/09 12:49:55;;;;;;;16.25;11.02;;;;;;;;;;5054598;28;20029;-76
2022/11/09 12:52:25;;;;;;;15.13;9.55;;;;;;;;;;5052771;28;20402;-76
2022/11/09 12:54:52;;;;;;;13.82;10.75;;;;;;;;;;5053982;28;20032;-75
2022/11/09 12:57:23;;;;;;;14.20;11.77;;;;;;;;;;5053614;28;20029;-76
2022/11/09 12:59:50;;;;;;;15.95;12.30;;;;;;;;;;5054391;28;20095;-75
2022/11/09 13:02:39;;;;;;;14.07;12.13;;;;;;;;;;5052981;28;20025;-76
2022/11/09 13:05:07;;;;;;;14.95;12.15;;;;;;;;;;5053791;28;20065;-74
2022/11/09 13:07:39;;;;;;;16.70;13.02;;;;;;;;;;5053489;28;20032;-76
2022/11/09 13:10:05;;;;;;;18.65;12.85;;;;;;;;;;5054138;28;20055;-76
2022/11/09 13:12:38;;;;;;;18.58;13.43;;;;;;;;;;5052669;28;20025;-75
2022/11/09 13:15:26;;;;;;;16.33;12.52;;;;;;;;;;5054258;28;20052;-74
2022/11/09 13:17:58;;;;;;;17.27;13.85;;;;;;;;;;5053330;28;20475;-75
2022/11/09 13:20:36;;;;;;;18.20;14.02;;;;;;;;;;5052911;28;20017;-75
2022/11/09 13:23:04;;;;;;;17.45;13.10;;;;;;;;;;5052694;28;20033;-76
2022/11/09 13:25:46;;;;;;;15.40;12.68;;;;;;;;;;5054626;28;20044;-75
2022/11/09 13:28:27;;;;;;;18.00;13.48;;;;;;;;;;5053461;28;20025;-81
2022/11/09 13:30:59;;;;;;;17.17;13.95;;;;;;;;;;5054021;28;20039;-76
2022/11/09 13:33:32;;;;;;;18.60;14.00;;;;;;;;;;5052804;28;20029;-76
2022/11/09 13:36:12;;;;;;;20.17;14.98;;;;;;;;;;5054045;28;20060;-77
2022/11/09 13:38:38;;;;;;;22.33;15.52;;;;;;;;;;5053216;28;20495;-80
2022/11/09 13:41:24;;;;;;;20.77;15.85;;;;;;;;;;5052624;28;20107;-80
2022/11/09 13:44:07;;;;;;;21.50;15.48;;;;;;;;;;5052602;28;20027;-75
2022/11/09 13:46:37;;;;;;;20.83;14.85;;;;;;;;;;5052142;28;20060;-77
2022/11/09 13:49:23;;;;;;;18.77;14.77;;;;;;;;;;5051753;28;20056;-76
2022/11/09 13:51:49;;;;;;;20.50;16.17;;;;;;;;;;5053186;28;20256;-75
2022/11/09 13:54:24;;;;;;;20.17;15.63;;;;;;;;;;5053464;28;20021;-76
2022/11/09 13:56:50;;;;;;;18.23;15.38;;;;;;;;;;5053335;28;20025;-76
2022/11/09 13:59:22;;;;;;;18.50;15.63;;;;;;;;;;5052731;28;20329;-76
2022/11/09 14:01:48;;;;;;;;;;;;;;;;;;5053834;28;20021;-76
2022/11/09 14:04:21;;;;;;;23.45;16.73;;;;;;;;;;5053954;28;19912;-75
2022/11/09 14:06:47;;;;;;;22.20;17.60;;;;;;;;;;5053532;28;20043;-78
2022/11/09 14:09:16;;;;;;;23.33;18.83;;;;;;;;;;5053106;28;20031;-77
2022/11/09 14:11:56;;;;;;;21.58;17.25;;;;;;;;;;5053566;28;20060;-76
2022/11/09 14:14:28;;;;;;;24.50;18.63;;;;;;;;;;5052411;28;20025;-75
2022/11/09 14:17:13;;;;;;;24.25;17.67;;;;;;;;;;5053022;28;20049;-76
2022/11/09 14:19:44;;;;;;;25.08;18.33;;;;;;;;;;5053328;28;20092;-76
2022/11/09 14:22:14;;;;;;;22.02;17.38;;;;;;;;;;5053591;28;20037;-76
2022/11/09 14:24:41;;;;;;;24.35;18.48;;;;;;;;;;5054217;28;20025;-76
2022/11/09 14:27:10;;;;;;;26.55;18.23;;;;;;;;;;5053719;28;20029;-75
2022/11/09 14:29:39;;;;;;;25.33;17.92;;;;;;;;;;5053413;28;20028;-75
2022/11/09 14:32:23;;;;;;;25.35;18.25;;;;;;;;;;5052992;28;20420;-75
2022/11/09 14:34:49;;;;;;;28.15;19.48;;;;;;;;;;5053635;28;20021;-75
2022/11/09 14:37:16;;;;;;;29.27;19.50;;;;;;;;;;5052169;28;20154;-75
2022/11/09 14:39:46;;;;;;;23.95;18.00;;;;;;;;;;5051582;28;20021;-76
2022/11/09 14:42:17;;;;;;;26.35;19.58;;;;;;;;;;5054201;28;20025;-75
2022/11/09 14:44:43;;;;;;;27.63;20.30;;;;;;;;;;5052944;28;20036;-79
2022/11/09 14:47:15;;;;;;;31.70;20.65;;;;;;;;;;5052919;28;20029;-77
2022/11/09 14:49:41;;;;;;;;;;;;;;;;;;5051534;28;20025;-75
2022/11/09 14:52:09;;;;;;;25.63;18.92;;;;;;;;;;5052495;28;19904;-74
2022/11/09 14:54:35;;;;;;;29.25;20.83;;;;;;;;;;5052308;28;20135;-79
2022/11/09 14:57:01;;;;;;;27.52;20.45;;;;;;;;;;5052152;28;20032;-80
2022/11/09 14:59:30;;;;;;;26.90;20.50;;;;;;;;;;5052839;28;20443;-79
2022/11/09 15:02:01;;;;;;;31.35;21.58;;;;;;;;;;5051711;28;20095;-77
2022/11/09 15:04:28;;;;;;;30.08;20.75;;;;;;;;;;5052253;28;20098;-75
2022/11/09 15:07:01;;;;;;;30.10;22.75;;;;;;;;;;5052115;28;20427;-77
2022/11/09 15:09:34;;;;;;;30.70;21.55;;;;;;;;;;5050549;28;20031;-78
2022/11/09 15:12:00;;;;;;;35.70;22.75;;;;;;;;;;5052421;28;20028;-75
2022/11/09 15:14:30;;;;;;;31.88;22.73;;;;;;;;;;5051999;28;20055;-76
2022/11/09 15:17:06;;;;;;;33.17;22.70;;;;;;;;;;5052045;28;20360;-77
2022/11/09 15:19:53;;;;;;;30.38;22.63;;;;;;;;;;5053170;28;20517;-77
2022/11/09 15:22:42;;;;;;;32.92;23.15;;;;;;;;;;5056571;28;20084;-77
2022/11/09 15:25:22;;;;;;;33.17;23.30;;;;;;;;;;5052412;28;20021;-76
2022/11/09 15:27:59;;;;;;;35.70;23.02;;;;;;;;;;5052003;28;20158;-76
2022/11/09 15:30:26;;;;;;;32.50;23.25;;;;;;;;;;5052208;28;20104;-76
2022/11/09 15:32:52;;;;;;;32.50;22.63;;;;;;;;;;5052058;28;20116;-76
2022/11/09 15:35:18;;;;;;;31.88;22.77;;;;;;;;;;5051937;28;20025;-76
2022/11/09 15:37:49;;;;;;;29.88;22.58;;;;;;;;;;5049745;28;20583;-77
2022/11/09 15:40:17;;;;;;;29.98;21.38;;;;;;;;;;5052022;28;20075;-76
2022/11/09 15:42:43;;;;;;;32.15;21.92;;;;;;;;;;5052170;28;20029;-77
2022/11/09 15:45:12;;;;;;;31.48;22.10;;;;;;;;;;5051770;28;20029;-76
2022/11/09 15:47:39;;;;;;;31.60;23.60;;;;;;;;;;5052684;28;20116;-76
2022/11/09 15:50:15;;;;;;;32.53;23.52;;;;;;;;;;5051654;28;20025;-76
2022/11/09 15:52:44;;;;;;;33.92;23.50;;;;;;;;;;5051336;28;20664;-76
2022/11/09 15:55:17;;;;;;;34.05;23.90;;;;;;;;;;5060465;28;20028;-78